sensor_id;sensor_type;location;lat;lon;timestamp;temperature;humidity
12870;DHT22;6503;48.572;13.460;2022-07-10T00:01:30;16.50;99.90
12870;DHT22;6503;48.572;13.460;2022-07-10T00:03:57;16.50;99.90
12870;DHT22;6503;48.572;13.460;2022-07-10T00:06:25;16.50;99.90
12870;DHT22;6503;48.572;13.460;2022-07-10T00:08:52;16.40;99.90
12870;DHT22;6503;48.572;13.460;2022-07-10T00:11:21;16.50;99.90
12870;DHT22;6503;48.572;13.460;2022-07-10T00:13:48;16.50;99.90
12870;DHT22;6503;48.572;13.460;2022-07-10T00:16:16;16.50;99.90
12870;DHT22;6503;48.572;13.460;2022-07-10T00:18:44;16.40;99.90
12870;DHT22;6503;48.572;13.460;2022-07-10T00:21:11;16.40;99.90
12870;DHT22;6503;48.572;13.460;2022-07-10T00:23:39;16.40;99.90
12870;DHT22;6503;48.572;13.460;2022-07-10T00:26:06;16.40;99.90
12870;DHT22;6503;48.572;13.460;2022-07-10T00:28:34;16.40;99.90
12870;DHT22;6503;48.572;13.460;2022-07-10T00:31:02;16.40;99.90
12870;DHT22;6503;48.572;13.460;2022-07-10T00:33:29;16.40;99.90
12870;DHT22;6503;48.572;13.460;2022-07-10T00:35:57;16.40;99.90
12870;DHT22;6503;48.572;13.460;2022-07-10T00:38:24;16.30;99.90
12870;DHT22;6503;48.572;13.460;2022-07-10T00:40:52;16.30;99.90
12870;DHT22;6503;48.572;13.460;2022-07-10T00:43:20;16.20;99.90
12870;DHT22;6503;48.572;13.460;2022-07-10T00:45:48;16.20;99.90
12870;DHT22;6503;48.572;13.460;2022-07-10T00:48:15;16.20;99.90
12870;DHT22;6503;48.572;13.460;2022-07-10T00:50:43;16.20;99.90
12870;DHT22;6503;48.572;13.460;2022-07-10T00:53:11;16.30;99.90
12870;DHT22;6503;48.572;13.460;2022-07-10T00:55:39;16.40;99.90
12870;DHT22;6503;48.572;13.460;2022-07-10T00:58:08;16.40;99.90
12870;DHT22;6503;48.572;13.460;2022-07-10T01:00:37;16.30;99.90
12870;DHT22;6503;48.572;13.460;2022-07-10T01:03:05;16.20;99.90
12870;DHT22;6503;48.572;13.460;2022-07-10T01:05:32;16.10;99.90
12870;DHT22;6503;48.572;13.460;2022-07-10T01:07:59;16.00;99.90
12870;DHT22;6503;48.572;13.460;2022-07-10T01:10:26;16.00;99.90
12870;DHT22;6503;48.572;13.460;2022-07-10T01:12:53;16.00;99.90
12870;DHT22;6503;48.572;13.460;2022-07-10T01:15:22;16.10;99.90
12870;DHT22;6503;48.572;13.460;2022-07-10T01:17:49;16.10;99.90
12870;DHT22;6503;48.572;13.460;2022-07-10T01:20:18;16.20;99.90
12870;DHT22;6503;48.572;13.460;2022-07-10T01:22:46;16.20;99.90
12870;DHT22;6503;48.572;13.460;2022-07-10T01:25:13;16.20;99.90
12870;DHT22;6503;48.572;13.460;2022-07-10T01:27:40;16.20;99.90
12870;DHT22;6503;48.572;13.460;2022-07-10T01:30:08;16.20;99.90
12870;DHT22;6503;48.572;13.460;2022-07-10T01:32:39;16.20;99.90
12870;DHT22;6503;48.572;13.460;2022-07-10T01:35:07;16.20;99.90
12870;DHT22;6503;48.572;13.460;2022-07-10T01:37:34;16.10;99.90
12870;DHT22;6503;48.572;13.460;2022-07-10T01:40:03;16.10;99.90
12870;DHT22;6503;48.572;13.460;2022-07-10T01:42:30;16.00;99.90
12870;DHT22;6503;48.572;13.460;2022-07-10T01:44:57;15.90;99.90
12870;DHT22;6503;48.572;13.460;2022-07-10T01:47:24;15.90;99.90
12870;DHT22;6503;48.572;13.460;2022-07-10T01:49:54;15.90;99.90
12870;DHT22;6503;48.572;13.460;2022-07-10T01:52:21;16.00;99.90
12870;DHT22;6503;48.572;13.460;2022-07-10T01:54:50;16.00;99.90
12870;DHT22;6503;48.572;13.460;2022-07-10T01:57:19;16.00;99.90
12870;DHT22;6503;48.572;13.460;2022-07-10T01:59:46;16.00;99.90
12870;DHT22;6503;48.572;13.460;2022-07-10T02:02:12;16.00;99.90
12870;DHT22;6503;48.572;13.460;2022-07-10T02:04:39;16.10;99.90
12870;DHT22;6503;48.572;13.460;2022-07-10T02:07:08;16.10;99.90
12870;DHT22;6503;48.572;13.460;2022-07-10T02:09:36;16.00;99.90
12870;DHT22;6503;48.572;13.460;2022-07-10T02:12:05;16.00;99.90
12870;DHT22;6503;48.572;13.460;2022-07-10T02:14:33;16.10;99.90
12870;DHT22;6503;48.572;13.460;2022-07-10T02:17:00;16.10;99.90
12870;DHT22;6503;48.572;13.460;2022-07-10T02:19:27;16.10;99.90
12870;DHT22;6503;48.572;13.460;2022-07-10T02:21:54;16.10;99.90
12870;DHT22;6503;48.572;13.460;2022-07-10T02:24:21;16.10;99.90
12870;DHT22;6503;48.572;13.460;2022-07-10T02:26:48;16.10;99.90
12870;DHT22;6503;48.572;13.460;2022-07-10T02:29:15;16.20;99.90
12870;DHT22;6503;48.572;13.460;2022-07-10T02:31:44;16.10;99.90
12870;DHT22;6503;48.572;13.460;2022-07-10T02:34:12;16.00;99.90
12870;DHT22;6503;48.572;13.460;2022-07-10T02:36:40;16.10;99.90
12870;DHT22;6503;48.572;13.460;2022-07-10T02:39:08;16.10;99.90
12870;DHT22;6503;48.572;13.460;2022-07-10T02:41:35;16.00;99.90
12870;DHT22;6503;48.572;13.460;2022-07-10T02:44:02;16.00;99.90
12870;DHT22;6503;48.572;13.460;2022-07-10T02:46:29;16.00;99.90
12870;DHT22;6503;48.572;13.460;2022-07-10T02:48:57;16.10;99.90
12870;DHT22;6503;48.572;13.460;2022-07-10T02:51:24;16.10;99.90
12870;DHT22;6503;48.572;13.460;2022-07-10T02:53:51;16.10;99.90
12870;DHT22;6503;48.572;13.460;2022-07-10T02:56:18;16.20;99.90
12870;DHT22;6503;48.572;13.460;2022-07-10T02:58:45;16.10;99.90
12870;DHT22;6503;48.572;13.460;2022-07-10T03:01:13;16.10;99.90
12870;DHT22;6503;48.572;13.460;2022-07-10T03:03:40;16.10;99.90
12870;DHT22;6503;48.572;13.460;2022-07-10T03:06:09;16.10;99.90
12870;DHT22;6503;48.572;13.460;2022-07-10T03:08:36;16.10;99.90
12870;DHT22;6503;48.572;13.460;2022-07-10T03:11:03;16.10;99.90
12870;DHT22;6503;48.572;13.460;2022-07-10T03:13:29;16.20;99.90
12870;DHT22;6503;48.572;13.460;2022-07-10T03:15:58;16.20;99.90
12870;DHT22;6503;48.572;13.460;2022-07-10T03:18:25;16.20;99.90
12870;DHT22;6503;48.572;13.460;2022-07-10T03:20:52;16.20;99.90
12870;DHT22;6503;48.572;13.460;2022-07-10T03:23:21;16.30;99.90
12870;DHT22;6503;48.572;13.460;2022-07-10T03:25:48;16.30;99.90
12870;DHT22;6503;48.572;13.460;2022-07-10T03:28:15;16.20;99.90
12870;DHT22;6503;48.572;13.460;2022-07-10T03:30:42;16.20;99.90
12870;DHT22;6503;48.572;13.460;2022-07-10T03:33:08;16.20;99.90
12870;DHT22;6503;48.572;13.460;2022-07-10T03:35:35;16.20;99.90
12870;DHT22;6503;48.572;13.460;2022-07-10T03:38:02;16.00;99.90
12870;DHT22;6503;48.572;13.460;2022-07-10T03:40:31;16.00;99.90
12870;DHT22;6503;48.572;13.460;2022-07-10T03:42:59;15.90;99.90
12870;DHT22;6503;48.572;13.460;2022-07-10T03:45:26;15.90;99.90
12870;DHT22;6503;48.572;13.460;2022-07-10T03:47:53;15.80;99.90
12870;DHT22;6503;48.572;13.460;2022-07-10T03:50:20;15.80;99.90
12870;DHT22;6503;48.572;13.460;2022-07-10T03:52:46;15.80;99.90
12870;DHT22;6503;48.572;13.460;2022-07-10T03:55:13;15.90;99.90
12870;DHT22;6503;48.572;13.460;2022-07-10T03:57:42;15.90;99.90
12870;DHT22;6503;48.572;13.460;2022-07-10T04:00:20;16.00;99.90
12870;DHT22;6503;48.572;13.460;2022-07-10T04:02:49;16.00;99.90
12870;DHT22;6503;48.572;13.460;2022-07-10T04:05:20;16.00;99.90
12870;DHT22;6503;48.572;13.460;2022-07-10T04:07:48;16.00;99.90
12870;DHT22;6503;48.572;13.460;2022-07-10T04:10:15;15.90;99.90
12870;DHT22;6503;48.572;13.460;2022-07-10T04:12:44;16.00;99.90
12870;DHT22;6503;48.572;13.460;2022-07-10T04:15:11;16.00;99.90
12870;DHT22;6503;48.572;13.460;2022-07-10T04:17:38;16.10;99.90
12870;DHT22;6503;48.572;13.460;2022-07-10T04:20:06;16.10;99.90
12870;DHT22;6503;48.572;13.460;2022-07-10T04:22:34;16.00;99.90
12870;DHT22;6503;48.572;13.460;2022-07-10T04:25:01;16.00;99.90
12870;DHT22;6503;48.572;13.460;2022-07-10T04:27:29;16.00;99.90
12870;DHT22;6503;48.572;13.460;2022-07-10T04:29:58;16.10;99.90
12870;DHT22;6503;48.572;13.460;2022-07-10T04:32:25;16.10;99.90
12870;DHT22;6503;48.572;13.460;2022-07-10T04:34:53;16.00;99.90
12870;DHT22;6503;48.572;13.460;2022-07-10T04:37:20;16.00;99.90
12870;DHT22;6503;48.572;13.460;2022-07-10T04:39:47;16.00;99.90
12870;DHT22;6503;48.572;13.460;2022-07-10T04:42:14;16.00;99.90
12870;DHT22;6503;48.572;13.460;2022-07-10T04:44:41;16.10;99.90
12870;DHT22;6503;48.572;13.460;2022-07-10T04:47:09;16.10;99.90
12870;DHT22;6503;48.572;13.460;2022-07-10T04:49:36;16.00;99.90
12870;DHT22;6503;48.572;13.460;2022-07-10T04:52:04;15.90;99.90
12870;DHT22;6503;48.572;13.460;2022-07-10T04:54:31;16.00;99.90
12870;DHT22;6503;48.572;13.460;2022-07-10T04:56:58;16.00;99.90
12870;DHT22;6503;48.572;13.460;2022-07-10T04:59:25;16.00;99.90
12870;DHT22;6503;48.572;13.460;2022-07-10T05:01:52;16.00;99.90
12870;DHT22;6503;48.572;13.460;2022-07-10T05:04:21;15.90;99.90
12870;DHT22;6503;48.572;13.460;2022-07-10T05:06:48;16.00;99.90
12870;DHT22;6503;48.572;13.460;2022-07-10T05:09:15;16.20;99.90
12870;DHT22;6503;48.572;13.460;2022-07-10T05:11:46;16.20;99.90
12870;DHT22;6503;48.572;13.460;2022-07-10T05:14:13;16.20;99.90
12870;DHT22;6503;48.572;13.460;2022-07-10T05:16:42;16.20;99.90
12870;DHT22;6503;48.572;13.460;2022-07-10T05:19:09;16.30;99.90
12870;DHT22;6503;48.572;13.460;2022-07-10T05:21:38;16.20;99.90
12870;DHT22;6503;48.572;13.460;2022-07-10T05:24:05;16.10;99.90
12870;DHT22;6503;48.572;13.460;2022-07-10T05:26:32;16.10;99.90
12870;DHT22;6503;48.572;13.460;2022-07-10T05:28:59;16.00;99.90
12870;DHT22;6503;48.572;13.460;2022-07-10T05:31:26;16.00;99.90
12870;DHT22;6503;48.572;13.460;2022-07-10T05:33:53;16.10;99.90
12870;DHT22;6503;48.572;13.460;2022-07-10T05:36:20;16.20;99.90
12870;DHT22;6503;48.572;13.460;2022-07-10T05:38:48;16.20;99.90
12870;DHT22;6503;48.572;13.460;2022-07-10T05:41:15;16.30;99.90
12870;DHT22;6503;48.572;13.460;2022-07-10T05:43:42;16.30;99.90
12870;DHT22;6503;48.572;13.460;2022-07-10T05:46:09;16.30;99.90
12870;DHT22;6503;48.572;13.460;2022-07-10T05:48:36;16.30;99.90
12870;DHT22;6503;48.572;13.460;2022-07-10T05:51:04;16.20;99.90
12870;DHT22;6503;48.572;13.460;2022-07-10T05:53:31;16.20;99.90
12870;DHT22;6503;48.572;13.460;2022-07-10T05:56:01;16.20;99.90
12870;DHT22;6503;48.572;13.460;2022-07-10T05:58:28;16.20;99.90
12870;DHT22;6503;48.572;13.460;2022-07-10T06:00:55;16.30;99.90
12870;DHT22;6503;48.572;13.460;2022-07-10T06:03:22;16.30;99.90
12870;DHT22;6503;48.572;13.460;2022-07-10T06:05:49;16.30;99.90
12870;DHT22;6503;48.572;13.460;2022-07-10T06:08:16;16.40;99.90
12870;DHT22;6503;48.572;13.460;2022-07-10T06:10:43;16.50;99.90
12870;DHT22;6503;48.572;13.460;2022-07-10T06:13:12;16.50;99.90
12870;DHT22;6503;48.572;13.460;2022-07-10T06:15:39;16.50;99.90
12870;DHT22;6503;48.572;13.460;2022-07-10T06:18:06;16.60;99.90
12870;DHT22;6503;48.572;13.460;2022-07-10T06:20:33;16.50;99.90
12870;DHT22;6503;48.572;13.460;2022-07-10T06:23:00;16.60;99.90
12870;DHT22;6503;48.572;13.460;2022-07-10T06:25:27;16.70;99.90
12870;DHT22;6503;48.572;13.460;2022-07-10T06:27:54;16.80;99.90
12870;DHT22;6503;48.572;13.460;2022-07-10T06:30:22;17.00;99.90
12870;DHT22;6503;48.572;13.460;2022-07-10T06:32:49;17.10;99.90
12870;DHT22;6503;48.572;13.460;2022-07-10T06:35:16;17.10;99.90
12870;DHT22;6503;48.572;13.460;2022-07-10T06:37:43;17.20;99.90
12870;DHT22;6503;48.572;13.460;2022-07-10T06:40:12;17.10;99.90
12870;DHT22;6503;48.572;13.460;2022-07-10T06:42:39;17.10;99.90
12870;DHT22;6503;48.572;13.460;2022-07-10T06:45:07;16.90;99.90
12870;DHT22;6503;48.572;13.460;2022-07-10T06:47:36;16.90;99.90
12870;DHT22;6503;48.572;13.460;2022-07-10T06:50:21;16.80;99.90
12870;DHT22;6503;48.572;13.460;2022-07-10T06:52:48;17.00;99.90
12870;DHT22;6503;48.572;13.460;2022-07-10T06:55:16;16.90;99.90
12870;DHT22;6503;48.572;13.460;2022-07-10T06:57:44;16.90;99.90
12870;DHT22;6503;48.572;13.460;2022-07-10T07:00:12;16.90;99.90
12870;DHT22;6503;48.572;13.460;2022-07-10T07:02:40;17.10;99.90
12870;DHT22;6503;48.572;13.460;2022-07-10T07:05:08;17.30;99.90
12870;DHT22;6503;48.572;13.460;2022-07-10T07:07:35;17.30;99.90
12870;DHT22;6503;48.572;13.460;2022-07-10T07:10:03;17.30;99.90
12870;DHT22;6503;48.572;13.460;2022-07-10T07:12:30;17.40;99.90
12870;DHT22;6503;48.572;13.460;2022-07-10T07:14:57;17.60;99.90
12870;DHT22;6503;48.572;13.460;2022-07-10T07:17:24;17.70;99.90
12870;DHT22;6503;48.572;13.460;2022-07-10T07:20:00;17.70;99.90
12870;DHT22;6503;48.572;13.460;2022-07-10T07:22:45;17.80;99.90
12870;DHT22;6503;48.572;13.460;2022-07-10T07:25:29;17.70;99.90
12870;DHT22;6503;48.572;13.460;2022-07-10T07:27:56;17.70;99.90
12870;DHT22;6503;48.572;13.460;2022-07-10T07:30:23;17.90;99.90
12870;DHT22;6503;48.572;13.460;2022-07-10T07:32:50;18.00;99.90
12870;DHT22;6503;48.572;13.460;2022-07-10T07:35:19;18.10;99.90
12870;DHT22;6503;48.572;13.460;2022-07-10T07:37:47;18.20;99.90
12870;DHT22;6503;48.572;13.460;2022-07-10T07:40:16;18.20;99.90
12870;DHT22;6503;48.572;13.460;2022-07-10T07:42:45;17.90;99.90
12870;DHT22;6503;48.572;13.460;2022-07-10T07:45:12;18.00;99.90
12870;DHT22;6503;48.572;13.460;2022-07-10T07:47:43;18.00;99.90
12870;DHT22;6503;48.572;13.460;2022-07-10T07:50:11;18.00;99.90
12870;DHT22;6503;48.572;13.460;2022-07-10T07:52:40;17.90;99.90
12870;DHT22;6503;48.572;13.460;2022-07-10T07:55:08;17.90;99.90
12870;DHT22;6503;48.572;13.460;2022-07-10T07:57:35;18.10;99.90
12870;DHT22;6503;48.572;13.460;2022-07-10T08:00:04;18.30;99.90
12870;DHT22;6503;48.572;13.460;2022-07-10T08:02:31;18.40;99.90
12870;DHT22;6503;48.572;13.460;2022-07-10T08:04:59;18.50;99.90
12870;DHT22;6503;48.572;13.460;2022-07-10T08:07:33;18.60;99.90
12870;DHT22;6503;48.572;13.460;2022-07-10T08:10:02;18.80;99.90
12870;DHT22;6503;48.572;13.460;2022-07-10T08:12:30;18.70;99.90
12870;DHT22;6503;48.572;13.460;2022-07-10T08:14:57;18.60;99.90
12870;DHT22;6503;48.572;13.460;2022-07-10T08:17:25;18.40;99.90
12870;DHT22;6503;48.572;13.460;2022-07-10T08:19:52;18.50;99.90
12870;DHT22;6503;48.572;13.460;2022-07-10T08:22:19;18.70;99.90
12870;DHT22;6503;48.572;13.460;2022-07-10T08:24:46;18.70;99.90
12870;DHT22;6503;48.572;13.460;2022-07-10T08:27:14;18.70;99.90
12870;DHT22;6503;48.572;13.460;2022-07-10T08:29:42;18.70;99.90
12870;DHT22;6503;48.572;13.460;2022-07-10T08:32:09;18.70;99.90
12870;DHT22;6503;48.572;13.460;2022-07-10T08:34:36;18.80;99.90
12870;DHT22;6503;48.572;13.460;2022-07-10T08:37:04;19.00;99.90
12870;DHT22;6503;48.572;13.460;2022-07-10T08:39:31;19.20;99.90
12870;DHT22;6503;48.572;13.460;2022-07-10T08:41:58;19.40;99.90
12870;DHT22;6503;48.572;13.460;2022-07-10T08:44:27;19.40;99.90
12870;DHT22;6503;48.572;13.460;2022-07-10T08:46:56;19.10;99.90
12870;DHT22;6503;48.572;13.460;2022-07-10T08:49:27;19.00;99.90
12870;DHT22;6503;48.572;13.460;2022-07-10T08:51:57;19.00;99.90
12870;DHT22;6503;48.572;13.460;2022-07-10T08:54:28;19.20;99.90
12870;DHT22;6503;48.572;13.460;2022-07-10T08:56:56;19.30;99.90
12870;DHT22;6503;48.572;13.460;2022-07-10T08:59:23;19.50;99.90
12870;DHT22;6503;48.572;13.460;2022-07-10T09:01:52;19.50;99.90
12870;DHT22;6503;48.572;13.460;2022-07-10T09:04:21;19.60;99.90
12870;DHT22;6503;48.572;13.460;2022-07-10T09:06:48;19.40;99.90
12870;DHT22;6503;48.572;13.460;2022-07-10T09:09:15;19.10;99.90
12870;DHT22;6503;48.572;13.460;2022-07-10T09:11:42;19.20;99.90
12870;DHT22;6503;48.572;13.460;2022-07-10T09:14:11;19.50;99.90
12870;DHT22;6503;48.572;13.460;2022-07-10T09:16:40;19.60;99.90
12870;DHT22;6503;48.572;13.460;2022-07-10T09:19:19;19.60;99.90
12870;DHT22;6503;48.572;13.460;2022-07-10T09:21:48;19.60;99.90
12870;DHT22;6503;48.572;13.460;2022-07-10T09:24:16;19.60;99.90
12870;DHT22;6503;48.572;13.460;2022-07-10T09:26:57;19.70;99.90
12870;DHT22;6503;48.572;13.460;2022-07-10T09:29:24;19.80;99.90
12870;DHT22;6503;48.572;13.460;2022-07-10T09:31:52;19.90;99.90
12870;DHT22;6503;48.572;13.460;2022-07-10T09:34:37;19.90;99.90
12870;DHT22;6503;48.572;13.460;2022-07-10T09:37:23;20.00;99.90
12870;DHT22;6503;48.572;13.460;2022-07-10T09:39:52;20.10;99.90
12870;DHT22;6503;48.572;13.460;2022-07-10T09:42:30;19.70;99.90
12870;DHT22;6503;48.572;13.460;2022-07-10T09:45:18;19.30;99.90
12870;DHT22;6503;48.572;13.460;2022-07-10T09:47:53;19.10;99.90
12870;DHT22;6503;48.572;13.460;2022-07-10T09:50:24;19.20;99.90
12870;DHT22;6503;48.572;13.460;2022-07-10T09:52:53;19.00;99.90
12870;DHT22;6503;48.572;13.460;2022-07-10T09:55:21;19.00;99.90
12870;DHT22;6503;48.572;13.460;2022-07-10T09:57:54;19.20;99.90
12870;DHT22;6503;48.572;13.460;2022-07-10T10:00:23;19.20;99.90
12870;DHT22;6503;48.572;13.460;2022-07-10T10:02:55;19.10;99.90
12870;DHT22;6503;48.572;13.460;2022-07-10T10:05:30;19.10;99.90
12870;DHT22;6503;48.572;13.460;2022-07-10T10:08:01;19.10;99.90
12870;DHT22;6503;48.572;13.460;2022-07-10T10:10:32;19.00;99.90
12870;DHT22;6503;48.572;13.460;2022-07-10T10:13:03;19.00;99.90
12870;DHT22;6503;48.572;13.460;2022-07-10T10:15:35;19.00;99.90
12870;DHT22;6503;48.572;13.460;2022-07-10T10:18:02;19.20;98.20
12870;DHT22;6503;48.572;13.460;2022-07-10T10:20:32;19.50;95.80
12870;DHT22;6503;48.572;13.460;2022-07-10T10:23:09;19.70;91.10
12870;DHT22;6503;48.572;13.460;2022-07-10T10:25:38;19.50;88.90
12870;DHT22;6503;48.572;13.460;2022-07-10T10:28:08;19.50;90.40
12870;DHT22;6503;48.572;13.460;2022-07-10T10:30:37;19.50;92.40
12870;DHT22;6503;48.572;13.460;2022-07-10T10:36:07;20.10;77.50
12870;DHT22;6503;48.572;13.460;2022-07-10T10:38:59;20.10;67.70
12870;DHT22;6503;48.572;13.460;2022-07-10T10:41:28;20.10;67.70
12870;DHT22;6503;48.572;13.460;2022-07-10T10:44:18;20.00;68.80
12870;DHT22;6503;48.572;13.460;2022-07-10T10:46:54;20.00;68.30
12870;DHT22;6503;48.572;13.460;2022-07-10T10:49:28;20.00;67.60
12870;DHT22;6503;48.572;13.460;2022-07-10T10:52:16;19.80;66.60
12870;DHT22;6503;48.572;13.460;2022-07-10T10:55:01;19.80;59.70
12870;DHT22;6503;48.572;13.460;2022-07-10T10:57:38;20.00;54.60
12870;DHT22;6503;48.572;13.460;2022-07-10T11:00:12;20.20;46.80
12870;DHT22;6503;48.572;13.460;2022-07-10T11:02:44;20.20;47.10
12870;DHT22;6503;48.572;13.460;2022-07-10T11:05:39;20.30;48.10
12870;DHT22;6503;48.572;13.460;2022-07-10T11:08:10;20.60;46.30
12870;DHT22;6503;48.572;13.460;2022-07-10T11:10:39;20.50;48.10
12870;DHT22;6503;48.572;13.460;2022-07-10T11:13:07;20.30;49.50
12870;DHT22;6503;48.572;13.460;2022-07-10T11:15:36;20.30;51.10
12870;DHT22;6503;48.572;13.460;2022-07-10T11:18:08;20.40;52.10
12870;DHT22;6503;48.572;13.460;2022-07-10T11:20:37;20.40;52.20
12870;DHT22;6503;48.572;13.460;2022-07-10T11:23:34;20.30;57.00
12870;DHT22;6503;48.572;13.460;2022-07-10T11:26:07;20.30;52.10
12870;DHT22;6503;48.572;13.460;2022-07-10T11:28:50;20.10;52.30
12870;DHT22;6503;48.572;13.460;2022-07-10T11:31:23;20.00;50.90
12870;DHT22;6503;48.572;13.460;2022-07-10T11:33:52;20.10;49.90
12870;DHT22;6503;48.572;13.460;2022-07-10T11:36:21;20.40;48.30
12870;DHT22;6503;48.572;13.460;2022-07-10T11:38:58;20.70;46.30
12870;DHT22;6503;48.572;13.460;2022-07-10T11:41:26;21.20;40.70
12870;DHT22;6503;48.572;13.460;2022-07-10T11:43:55;21.50;38.60
12870;DHT22;6503;48.572;13.460;2022-07-10T11:46:24;21.40;40.60
12870;DHT22;6503;48.572;13.460;2022-07-10T11:48:52;21.30;43.40
12870;DHT22;6503;48.572;13.460;2022-07-10T11:51:23;21.20;45.00
12870;DHT22;6503;48.572;13.460;2022-07-10T11:54:14;21.30;44.50
12870;DHT22;6503;48.572;13.460;2022-07-10T11:56:47;21.30;47.90
12870;DHT22;6503;48.572;13.460;2022-07-10T11:59:24;21.40;43.60
12870;DHT22;6503;48.572;13.460;2022-07-10T12:01:53;21.10;43.20
12870;DHT22;6503;48.572;13.460;2022-07-10T12:04:23;20.90;41.40
12870;DHT22;6503;48.572;13.460;2022-07-10T12:06:53;20.70;44.70
12870;DHT22;6503;48.572;13.460;2022-07-10T12:09:24;20.80;41.90
12870;DHT22;6503;48.572;13.460;2022-07-10T12:12:00;21.20;40.10
12870;DHT22;6503;48.572;13.460;2022-07-10T12:14:28;21.40;36.20
12870;DHT22;6503;48.572;13.460;2022-07-10T12:16:56;20.80;41.10
12870;DHT22;6503;48.572;13.460;2022-07-10T12:19:25;20.30;46.10
12870;DHT22;6503;48.572;13.460;2022-07-10T12:21:57;20.40;46.40
12870;DHT22;6503;48.572;13.460;2022-07-10T12:24:27;20.60;45.20
12870;DHT22;6503;48.572;13.460;2022-07-10T12:26:54;20.60;42.90
12870;DHT22;6503;48.572;13.460;2022-07-10T12:29:24;20.30;45.00
12870;DHT22;6503;48.572;13.460;2022-07-10T12:31:52;20.40;49.20
12870;DHT22;6503;48.572;13.460;2022-07-10T12:34:34;20.70;46.00
12870;DHT22;6503;48.572;13.460;2022-07-10T12:37:07;20.70;46.50
12870;DHT22;6503;48.572;13.460;2022-07-10T12:39:45;20.80;46.50
12870;DHT22;6503;48.572;13.460;2022-07-10T12:42:23;20.70;44.30
12870;DHT22;6503;48.572;13.460;2022-07-10T12:44:50;20.60;44.70
12870;DHT22;6503;48.572;13.460;2022-07-10T12:47:19;20.40;48.30
12870;DHT22;6503;48.572;13.460;2022-07-10T12:49:54;20.30;46.70
12870;DHT22;6503;48.572;13.460;2022-07-10T12:52:26;20.40;48.30
12870;DHT22;6503;48.572;13.460;2022-07-10T12:55:20;20.60;44.10
12870;DHT22;6503;48.572;13.460;2022-07-10T12:57:49;20.40;45.20
12870;DHT22;6503;48.572;13.460;2022-07-10T13:00:20;20.40;43.20
12870;DHT22;6503;48.572;13.460;2022-07-10T13:02:48;20.50;41.70
12870;DHT22;6503;48.572;13.460;2022-07-10T13:05:27;20.30;39.80
12870;DHT22;6503;48.572;13.460;2022-07-10T13:08:04;20.80;40.20
12870;DHT22;6503;48.572;13.460;2022-07-10T13:10:34;21.60;36.20
12870;DHT22;6503;48.572;13.460;2022-07-10T13:13:02;22.10;31.70
12870;DHT22;6503;48.572;13.460;2022-07-10T13:15:30;22.00;31.10
12870;DHT22;6503;48.572;13.460;2022-07-10T13:17:57;22.20;31.40
12870;DHT22;6503;48.572;13.460;2022-07-10T13:20:24;22.50;29.00
12870;DHT22;6503;48.572;13.460;2022-07-10T13:22:53;22.80;28.00
12870;DHT22;6503;48.572;13.460;2022-07-10T13:25:20;22.80;26.00
12870;DHT22;6503;48.572;13.460;2022-07-10T13:27:49;22.80;26.70
12870;DHT22;6503;48.572;13.460;2022-07-10T13:30:17;22.50;26.30
12870;DHT22;6503;48.572;13.460;2022-07-10T13:32:44;21.90;29.00
12870;DHT22;6503;48.572;13.460;2022-07-10T13:35:12;21.40;30.50
12870;DHT22;6503;48.572;13.460;2022-07-10T13:37:39;21.00;32.10
12870;DHT22;6503;48.572;13.460;2022-07-10T13:40:07;21.10;34.10
12870;DHT22;6503;48.572;13.460;2022-07-10T13:42:34;21.20;32.20
12870;DHT22;6503;48.572;13.460;2022-07-10T13:45:03;21.40;33.00
12870;DHT22;6503;48.572;13.460;2022-07-10T13:47:31;22.00;30.50
12870;DHT22;6503;48.572;13.460;2022-07-10T13:49:58;21.70;30.20
12870;DHT22;6503;48.572;13.460;2022-07-10T13:52:25;21.80;29.40
12870;DHT22;6503;48.572;13.460;2022-07-10T13:54:52;21.80;28.80
12870;DHT22;6503;48.572;13.460;2022-07-10T13:57:19;22.10;26.60
12870;DHT22;6503;48.572;13.460;2022-07-10T13:59:46;22.10;26.50
12870;DHT22;6503;48.572;13.460;2022-07-10T14:02:18;22.20;26.00
12870;DHT22;6503;48.572;13.460;2022-07-10T14:04:45;22.10;25.70
12870;DHT22;6503;48.572;13.460;2022-07-10T14:07:13;21.50;27.80
12870;DHT22;6503;48.572;13.460;2022-07-10T14:09:40;21.20;29.40
12870;DHT22;6503;48.572;13.460;2022-07-10T14:12:08;21.10;27.40
12870;DHT22;6503;48.572;13.460;2022-07-10T14:14:36;21.20;27.80
12870;DHT22;6503;48.572;13.460;2022-07-10T14:17:03;21.10;28.40
12870;DHT22;6503;48.572;13.460;2022-07-10T14:19:32;21.30;28.50
12870;DHT22;6503;48.572;13.460;2022-07-10T14:21:59;21.40;27.50
12870;DHT22;6503;48.572;13.460;2022-07-10T14:24:26;21.40;27.10
12870;DHT22;6503;48.572;13.460;2022-07-10T14:26:53;21.40;27.50
12870;DHT22;6503;48.572;13.460;2022-07-10T14:29:21;21.40;25.40
12870;DHT22;6503;48.572;13.460;2022-07-10T14:31:48;21.20;26.50
12870;DHT22;6503;48.572;13.460;2022-07-10T14:34:16;21.10;27.20
12870;DHT22;6503;48.572;13.460;2022-07-10T14:36:45;20.90;28.70
12870;DHT22;6503;48.572;13.460;2022-07-10T14:39:14;20.80;29.10
12870;DHT22;6503;48.572;13.460;2022-07-10T14:41:41;20.80;30.90
12870;DHT22;6503;48.572;13.460;2022-07-10T14:44:10;20.90;30.10
12870;DHT22;6503;48.572;13.460;2022-07-10T14:46:38;20.70;32.20
12870;DHT22;6503;48.572;13.460;2022-07-10T14:49:05;20.70;31.10
12870;DHT22;6503;48.572;13.460;2022-07-10T14:51:32;20.50;31.90
12870;DHT22;6503;48.572;13.460;2022-07-10T14:54:02;20.40;33.10
12870;DHT22;6503;48.572;13.460;2022-07-10T14:56:29;20.50;33.70
12870;DHT22;6503;48.572;13.460;2022-07-10T14:58:56;20.70;32.20
12870;DHT22;6503;48.572;13.460;2022-07-10T15:01:23;20.50;30.80
12870;DHT22;6503;48.572;13.460;2022-07-10T15:03:50;20.50;31.50
12870;DHT22;6503;48.572;13.460;2022-07-10T15:06:21;20.40;32.90
12870;DHT22;6503;48.572;13.460;2022-07-10T15:08:48;20.40;33.70
12870;DHT22;6503;48.572;13.460;2022-07-10T15:11:18;20.40;33.90
12870;DHT22;6503;48.572;13.460;2022-07-10T15:13:48;20.50;35.00
12870;DHT22;6503;48.572;13.460;2022-07-10T15:16:19;20.50;36.00
12870;DHT22;6503;48.572;13.460;2022-07-10T15:18:45;20.70;35.00
12870;DHT22;6503;48.572;13.460;2022-07-10T15:21:12;20.70;34.40
12870;DHT22;6503;48.572;13.460;2022-07-10T15:23:42;20.70;36.00
12870;DHT22;6503;48.572;13.460;2022-07-10T15:26:09;20.60;35.60
12870;DHT22;6503;48.572;13.460;2022-07-10T15:28:39;20.60;35.20
12870;DHT22;6503;48.572;13.460;2022-07-10T15:31:07;20.50;35.90
12870;DHT22;6503;48.572;13.460;2022-07-10T15:33:34;20.40;36.80
12870;DHT22;6503;48.572;13.460;2022-07-10T15:36:09;20.30;37.40
12870;DHT22;6503;48.572;13.460;2022-07-10T15:38:35;20.40;36.40
12870;DHT22;6503;48.572;13.460;2022-07-10T15:41:03;20.40;35.90
12870;DHT22;6503;48.572;13.460;2022-07-10T15:43:33;20.20;37.60
12870;DHT22;6503;48.572;13.460;2022-07-10T15:46:03;20.00;40.80